sensor_id;sensor_type;location;lat;lon;timestamp;pressure;altitude;pressure_sealevel;temperature;humidity
66396;BME280;53207;51.378;-1.342;2023-02-12T00:02:10;102387.12;;;18.96;39.23
66396;BME280;53207;51.378;-1.342;2023-02-12T00:04:37;102387.05;;;18.92;39.20
66396;BME280;53207;51.378;-1.342;2023-02-12T00:07:04;102392.33;;;18.59;39.30
66396;BME280;53207;51.378;-1.342;2023-02-12T00:09:31;102392.46;;;18.78;39.29
66396;BME280;53207;51.378;-1.342;2023-02-12T00:11:58;102386.60;;;18.78;39.22
66396;BME280;53207;51.378;-1.342;2023-02-12T00:14:25;102390.97;;;18.78;39.18
66396;BME280;53207;51.378;-1.342;2023-02-12T00:16:52;102391.37;;;18.90;38.97
66396;BME280;53207;51.378;-1.342;2023-02-12T00:19:19;102385.99;;;18.80;39.05
66396;BME280;53207;51.378;-1.342;2023-02-12T00:21:47;102384.91;;;18.76;39.05
66396;BME280;53207;51.378;-1.342;2023-02-12T00:24:14;102389.70;;;18.75;39.00
66396;BME280;53207;51.378;-1.342;2023-02-12T00:26:41;102391.75;;;18.66;39.08
66396;BME280;53207;51.378;-1.342;2023-02-12T00:29:09;102378.49;;;18.63;39.05
66396;BME280;53207;51.378;-1.342;2023-02-12T00:31:36;102373.50;;;18.64;39.01
66396;BME280;53207;51.378;-1.342;2023-02-12T00:34:03;102376.71;;;18.68;38.89
66396;BME280;53207;51.378;-1.342;2023-02-12T00:36:31;102386.91;;;18.50;39.13
66396;BME280;53207;51.378;-1.342;2023-02-12T00:38:59;102387.93;;;18.60;38.95
66396;BME280;53207;51.378;-1.342;2023-02-12T00:41:27;102383.75;;;18.70;38.75
66396;BME280;53207;51.378;-1.342;2023-02-12T00:43:54;102379.22;;;18.68;38.72
66396;BME280;53207;51.378;-1.342;2023-02-12T00:46:22;102382.66;;;18.57;38.85
66396;BME280;53207;51.378;-1.342;2023-02-12T00:48:49;102385.15;;;18.58;38.80
66396;BME280;53207;51.378;-1.342;2023-02-12T00:51:16;102382.14;;;18.46;38.91
66396;BME280;53207;51.378;-1.342;2023-02-12T00:53:44;102381.39;;;18.58;38.73
66396;BME280;53207;51.378;-1.342;2023-02-12T00:56:11;102382.25;;;18.27;38.81
66396;BME280;53207;51.378;-1.342;2023-02-12T00:58:38;102382.32;;;18.47;38.85
66396;BME280;53207;51.378;-1.342;2023-02-12T01:01:06;102376.72;;;18.30;39.04
66396;BME280;53207;51.378;-1.342;2023-02-12T01:03:33;102381.55;;;18.48;38.81
66396;BME280;53207;51.378;-1.342;2023-02-12T01:06:00;102378.57;;;18.52;38.72
66396;BME280;53207;51.378;-1.342;2023-02-12T01:08:28;102374.17;;;18.45;38.76
66396;BME280;53207;51.378;-1.342;2023-02-12T01:10:56;102365.92;;;18.42;38.75
66396;BME280;53207;51.378;-1.342;2023-02-12T01:13:24;102361.26;;;18.05;38.93
66396;BME280;53207;51.378;-1.342;2023-02-12T01:16:01;102362.02;;;18.07;38.90
66396;BME280;53207;51.378;-1.342;2023-02-12T01:18:28;102367.41;;;18.17;39.05
66396;BME280;53207;51.378;-1.342;2023-02-12T01:20:56;102371.17;;;18.55;38.46
66396;BME280;53207;51.378;-1.342;2023-02-12T01:23:23;102363.52;;;18.37;38.65
66396;BME280;53207;51.378;-1.342;2023-02-12T01:25:50;102362.10;;;18.32;38.71
66396;BME280;53207;51.378;-1.342;2023-02-12T01:28:17;102364.13;;;18.44;38.49
66396;BME280;53207;51.378;-1.342;2023-02-12T01:30:45;102367.42;;;18.39;38.54
66396;BME280;53207;51.378;-1.342;2023-02-12T01:33:12;102369.81;;;18.25;38.71
66396;BME280;53207;51.378;-1.342;2023-02-12T01:35:39;102365.92;;;18.35;38.50
66396;BME280;53207;51.378;-1.342;2023-02-12T01:38:07;102361.28;;;18.18;38.77
66396;BME280;53207;51.378;-1.342;2023-02-12T01:40:34;102360.83;;;18.20;38.70
66396;BME280;53207;51.378;-1.342;2023-02-12T01:43:02;102366.21;;;18.33;38.46
66396;BME280;53207;51.378;-1.342;2023-02-12T01:45:44;102367.71;;;18.12;38.38
66396;BME280;53207;51.378;-1.342;2023-02-12T01:48:13;102364.15;;;18.33;38.38
66396;BME280;53207;51.378;-1.342;2023-02-12T01:50:42;102363.86;;;18.18;38.59
66396;BME280;53207;51.378;-1.342;2023-02-12T01:53:10;102367.10;;;18.28;38.37
66396;BME280;53207;51.378;-1.342;2023-02-12T01:55:38;102370.10;;;18.17;38.53
66396;BME280;53207;51.378;-1.342;2023-02-12T01:58:06;102370.12;;;18.05;38.66
66396;BME280;53207;51.378;-1.342;2023-02-12T02:00:34;102365.77;;;18.11;38.54
66396;BME280;53207;51.378;-1.342;2023-02-12T02:03:02;102365.47;;;18.10;38.51
66396;BME280;53207;51.378;-1.342;2023-02-12T02:05:37;102369.39;;;18.26;38.21
66396;BME280;53207;51.378;-1.342;2023-02-12T02:08:06;102364.95;;;18.07;38.46
66396;BME280;53207;51.378;-1.342;2023-02-12T02:10:34;102362.62;;;18.18;38.28
66396;BME280;53207;51.378;-1.342;2023-02-12T02:13:02;102364.20;;;18.16;38.29
66396;BME280;53207;51.378;-1.342;2023-02-12T02:15:30;102364.26;;;18.17;38.19
66396;BME280;53207;51.378;-1.342;2023-02-12T02:18:00;102369.86;;;18.34;37.94
66396;BME280;53207;51.378;-1.342;2023-02-12T02:20:48;102371.63;;;18.26;38.06
66396;BME280;53207;51.378;-1.342;2023-02-12T02:23:38;102373.84;;;18.41;37.88
66396;BME280;53207;51.378;-1.342;2023-02-12T02:26:27;102372.64;;;18.29;38.03
66396;BME280;53207;51.378;-1.342;2023-02-12T02:29:16;102370.51;;;18.29;37.98
66396;BME280;53207;51.378;-1.342;2023-02-12T02:31:47;102370.94;;;18.21;38.07
66396;BME280;53207;51.378;-1.342;2023-02-12T02:34:24;102363.57;;;18.41;38.18
66396;BME280;53207;51.378;-1.342;2023-02-12T02:37:02;102357.10;;;18.20;38.05
66396;BME280;53207;51.378;-1.342;2023-02-12T02:39:35;102357.28;;;18.06;38.28
66396;BME280;53207;51.378;-1.342;2023-02-12T02:42:08;102361.64;;;17.99;38.33
66396;BME280;53207;51.378;-1.342;2023-02-12T02:44:41;102357.76;;;18.00;38.29
66396;BME280;53207;51.378;-1.342;2023-02-12T02:47:12;102353.15;;;18.11;38.13
66396;BME280;53207;51.378;-1.342;2023-02-12T02:49:44;102356.60;;;18.35;37.76
66396;BME280;53207;51.378;-1.342;2023-02-12T02:52:16;102359.45;;;18.05;38.12
66396;BME280;53207;51.378;-1.342;2023-02-12T02:54:48;102357.44;;;18.15;37.96
66396;BME280;53207;51.378;-1.342;2023-02-12T02:57:23;102357.55;;;17.91;38.25
66396;BME280;53207;51.378;-1.342;2023-02-12T02:59:55;102359.51;;;18.06;38.04
66396;BME280;53207;51.378;-1.342;2023-02-12T03:02:26;102357.88;;;18.08;37.97
66396;BME280;53207;51.378;-1.342;2023-02-12T03:04:57;102357.56;;;18.18;37.81
66396;BME280;53207;51.378;-1.342;2023-02-12T03:07:28;102355.80;;;18.44;37.75
66396;BME280;53207;51.378;-1.342;2023-02-12T03:10:00;102352.59;;;18.01;37.98
66396;BME280;53207;51.378;-1.342;2023-02-12T03:12:32;102349.28;;;17.89;38.12
66396;BME280;53207;51.378;-1.342;2023-02-12T03:15:03;102349.87;;;18.04;37.90
66396;BME280;53207;51.378;-1.342;2023-02-12T03:17:38;102348.99;;;17.97;37.96
66396;BME280;53207;51.378;-1.342;2023-02-12T03:20:11;102347.88;;;17.91;38.00
66396;BME280;53207;51.378;-1.342;2023-02-12T03:22:45;102349.17;;;18.02;37.86
66396;BME280;53207;51.378;-1.342;2023-02-12T03:25:16;102350.32;;;18.04;37.77
66396;BME280;53207;51.378;-1.342;2023-02-12T03:27:51;102350.19;;;18.12;37.65
66396;BME280;53207;51.378;-1.342;2023-02-12T03:30:20;102348.85;;;17.95;37.86
66396;BME280;53207;51.378;-1.342;2023-02-12T03:32:56;102344.04;;;17.94;37.84
66396;BME280;53207;51.378;-1.342;2023-02-12T03:35:31;102340.17;;;18.09;37.61
66396;BME280;53207;51.378;-1.342;2023-02-12T03:38:05;102341.19;;;17.98;37.77
66396;BME280;53207;51.378;-1.342;2023-02-12T03:40:39;102338.51;;;17.85;37.89
66396;BME280;53207;51.378;-1.342;2023-02-12T03:43:15;102339.94;;;17.84;37.89
66396;BME280;53207;51.378;-1.342;2023-02-12T03:45:50;102340.31;;;17.69;38.06
66396;BME280;53207;51.378;-1.342;2023-02-12T03:48:23;102337.07;;;17.60;38.18
66396;BME280;53207;51.378;-1.342;2023-02-12T03:50:56;102336.70;;;17.79;37.90
66396;BME280;53207;51.378;-1.342;2023-02-12T03:53:25;102333.33;;;17.91;37.70
66396;BME280;53207;51.378;-1.342;2023-02-12T03:55:56;102333.44;;;17.75;37.90
66396;BME280;53207;51.378;-1.342;2023-02-12T03:58:27;102336.34;;;17.97;37.93
66396;BME280;53207;51.378;-1.342;2023-02-12T04:00:56;102336.53;;;17.81;37.76
66396;BME280;53207;51.378;-1.342;2023-02-12T04:03:23;102334.37;;;17.84;37.67
66396;BME280;53207;51.378;-1.342;2023-02-12T04:05:51;102336.40;;;18.17;37.88
66396;BME280;53207;51.378;-1.342;2023-02-12T04:08:18;102336.76;;;17.70;37.83
66396;BME280;53207;51.378;-1.342;2023-02-12T04:10:53;102336.74;;;18.01;37.74
66396;BME280;53207;51.378;-1.342;2023-02-12T04:13:32;102339.74;;;17.82;37.59
66396;BME280;53207;51.378;-1.342;2023-02-12T04:16:14;102340.30;;;18.15;37.52
66396;BME280;53207;51.378;-1.342;2023-02-12T04:18:45;102340.61;;;17.83;37.55
66396;BME280;53207;51.378;-1.342;2023-02-12T04:21:25;102340.97;;;18.17;37.78
66396;BME280;53207;51.378;-1.342;2023-02-12T04:24:04;102340.44;;;17.57;37.91
66396;BME280;53207;51.378;-1.342;2023-02-12T04:26:38;102340.92;;;17.86;37.86
66396;BME280;53207;51.378;-1.342;2023-02-12T04:29:15;102335.39;;;17.65;37.77
66396;BME280;53207;51.378;-1.342;2023-02-12T04:31:47;102336.47;;;17.57;37.88
66396;BME280;53207;51.378;-1.342;2023-02-12T04:34:20;102342.93;;;17.96;37.69
66396;BME280;53207;51.378;-1.342;2023-02-12T04:36:53;102343.22;;;17.70;37.67
66396;BME280;53207;51.378;-1.342;2023-02-12T04:39:26;102343.40;;;17.97;38.02
66396;BME280;53207;51.378;-1.342;2023-02-12T04:41:57;102345.18;;;17.81;37.94
66396;BME280;53207;51.378;-1.342;2023-02-12T04:44:29;102353.06;;;17.97;38.06
66396;BME280;53207;51.378;-1.342;2023-02-12T04:46:57;102359.76;;;17.72;38.12
66396;BME280;53207;51.378;-1.342;2023-02-12T04:49:24;102360.10;;;17.43;38.15
66396;BME280;53207;51.378;-1.342;2023-02-12T04:51:51;102360.47;;;17.74;38.12
66396;BME280;53207;51.378;-1.342;2023-02-12T04:54:20;102360.51;;;17.79;38.01
66396;BME280;53207;51.378;-1.342;2023-02-12T04:56:48;102361.86;;;17.96;38.10
66396;BME280;53207;51.378;-1.342;2023-02-12T04:59:15;102356.38;;;17.87;38.20
66396;BME280;53207;51.378;-1.342;2023-02-12T05:01:42;102355.51;;;17.46;38.07
66396;BME280;53207;51.378;-1.342;2023-02-12T05:04:11;102354.60;;;17.41;38.11
66396;BME280;53207;51.378;-1.342;2023-02-12T05:06:39;102351.41;;;17.37;38.18
66396;BME280;53207;51.378;-1.342;2023-02-12T05:09:08;102347.42;;;17.78;38.26
66396;BME280;53207;51.378;-1.342;2023-02-12T05:11:36;102339.59;;;18.05;37.84
66396;BME280;53207;51.378;-1.342;2023-02-12T05:14:03;102338.75;;;17.72;37.95
66396;BME280;53207;51.378;-1.342;2023-02-12T05:16:31;102343.74;;;17.70;37.96
66396;BME280;53207;51.378;-1.342;2023-02-12T05:18:58;102348.33;;;17.80;37.82
66396;BME280;53207;51.378;-1.342;2023-02-12T05:21:25;102350.58;;;17.82;37.78
66396;BME280;53207;51.378;-1.342;2023-02-12T05:23:52;102349.91;;;17.23;38.24
66396;BME280;53207;51.378;-1.342;2023-02-12T05:26:21;102348.52;;;17.84;38.05
66396;BME280;53207;51.378;-1.342;2023-02-12T05:28:48;102354.41;;;17.71;37.91
66396;BME280;53207;51.378;-1.342;2023-02-12T05:31:17;102348.56;;;17.97;37.83
66396;BME280;53207;51.378;-1.342;2023-02-12T05:33:46;102348.47;;;17.41;37.90
66396;BME280;53207;51.378;-1.342;2023-02-12T05:36:16;102348.93;;;17.63;37.96
66396;BME280;53207;51.378;-1.342;2023-02-12T05:38:44;102350.97;;;17.64;37.93
66396;BME280;53207;51.378;-1.342;2023-02-12T05:41:13;102350.77;;;17.88;37.86
66396;BME280;53207;51.378;-1.342;2023-02-12T05:43:40;102349.65;;;17.97;37.73
66396;BME280;53207;51.378;-1.342;2023-02-12T05:46:08;102351.39;;;17.67;37.78
66396;BME280;53207;51.378;-1.342;2023-02-12T05:48:36;102347.59;;;17.74;37.66
66396;BME280;53207;51.378;-1.342;2023-02-12T05:51:05;102345.09;;;17.34;37.82
66396;BME280;53207;51.378;-1.342;2023-02-12T05:53:33;102342.46;;;17.73;37.95
66396;BME280;53207;51.378;-1.342;2023-02-12T05:56:09;102341.23;;;17.83;37.79
66396;BME280;53207;51.378;-1.342;2023-02-12T05:58:37;102339.22;;;17.71;37.61
66396;BME280;53207;51.378;-1.342;2023-02-12T06:01:09;102339.10;;;17.93;37.60
66396;BME280;53207;51.378;-1.342;2023-02-12T06:03:38;102337.11;;;17.56;37.88
66396;BME280;53207;51.378;-1.342;2023-02-12T06:06:06;102333.85;;;17.75;37.91
66396;BME280;53207;51.378;-1.342;2023-02-12T06:08:33;102332.39;;;17.15;38.07
66396;BME280;53207;51.378;-1.342;2023-02-12T06:11:00;102335.17;;;17.80;37.80
66396;BME280;53207;51.378;-1.342;2023-02-12T06:13:28;102334.11;;;17.65;38.01
66396;BME280;53207;51.378;-1.342;2023-02-12T06:15:56;102334.12;;;17.65;37.97
66396;BME280;53207;51.378;-1.342;2023-02-12T06:18:23;102332.69;;;17.58;38.05
66396;BME280;53207;51.378;-1.342;2023-02-12T06:20:50;102334.60;;;17.64;37.94
66396;BME280;53207;51.378;-1.342;2023-02-12T06:23:17;102334.24;;;17.36;37.98
66396;BME280;53207;51.378;-1.342;2023-02-12T06:25:45;102332.22;;;17.08;38.01
66396;BME280;53207;51.378;-1.342;2023-02-12T06:28:12;102326.93;;;17.70;37.77
66396;BME280;53207;51.378;-1.342;2023-02-12T06:30:40;102321.41;;;17.39;37.88
66396;BME280;53207;51.378;-1.342;2023-02-12T06:33:07;102320.49;;;17.41;37.84
66396;BME280;53207;51.378;-1.342;2023-02-12T06:35:35;102320.14;;;17.71;37.69
66396;BME280;53207;51.378;-1.342;2023-02-12T06:38:03;102321.08;;;17.68;37.69
66396;BME280;53207;51.378;-1.342;2023-02-12T06:40:31;102324.73;;;17.63;37.74
66396;BME280;53207;51.378;-1.342;2023-02-12T06:42:58;102325.41;;;17.40;37.72
66396;BME280;53207;51.378;-1.342;2023-02-12T06:45:26;102323.81;;;17.58;37.74
66396;BME280;53207;51.378;-1.342;2023-02-12T06:47:53;102327.39;;;17.61;37.68
66396;BME280;53207;51.378;-1.342;2023-02-12T06:50:20;102325.19;;;17.43;37.90
66396;BME280;53207;51.378;-1.342;2023-02-12T06:52:48;102327.14;;;17.52;37.75
66396;BME280;53207;51.378;-1.342;2023-02-12T06:55:15;102322.58;;;17.50;37.75
66396;BME280;53207;51.378;-1.342;2023-02-12T06:57:42;102320.38;;;17.30;37.67
66396;BME280;53207;51.378;-1.342;2023-02-12T07:00:11;102322.02;;;17.63;37.50
66396;BME280;53207;51.378;-1.342;2023-02-12T07:02:38;102320.83;;;17.29;37.64
66396;BME280;53207;51.378;-1.342;2023-02-12T07:05:05;102322.33;;;17.65;37.43
66396;BME280;53207;51.378;-1.342;2023-02-12T07:07:33;102324.16;;;17.38;37.48
66396;BME280;53207;51.378;-1.342;2023-02-12T07:10:00;102322.56;;;17.75;37.27
66396;BME280;53207;51.378;-1.342;2023-02-12T07:12:27;102317.59;;;17.55;37.28
66396;BME280;53207;51.378;-1.342;2023-02-12T07:14:55;102319.91;;;17.90;37.18
66396;BME280;53207;51.378;-1.342;2023-02-12T07:17:22;102322.99;;;17.85;37.11
66396;BME280;53207;51.378;-1.342;2023-02-12T07:19:49;102326.46;;;18.09;36.97
66396;BME280;53207;51.378;-1.342;2023-02-12T07:22:17;102322.18;;;18.29;36.89
66396;BME280;53207;51.378;-1.342;2023-02-12T07:24:44;102318.52;;;18.19;36.82
66396;BME280;53207;51.378;-1.342;2023-02-12T07:27:12;102319.06;;;18.43;36.68
66396;BME280;53207;51.378;-1.342;2023-02-12T07:29:39;102321.02;;;18.56;36.64
66396;BME280;53207;51.378;-1.342;2023-02-12T07:32:07;102322.06;;;18.72;36.54
66396;BME280;53207;51.378;-1.342;2023-02-12T07:34:34;102327.61;;;18.88;36.45
66396;BME280;53207;51.378;-1.342;2023-02-12T07:37:01;102327.29;;;19.03;36.35
66396;BME280;53207;51.378;-1.342;2023-02-12T07:39:29;102332.90;;;19.15;36.29
66396;BME280;53207;51.378;-1.342;2023-02-12T07:41:56;102333.98;;;19.28;36.17
66396;BME280;53207;51.378;-1.342;2023-02-12T07:44:24;102331.94;;;19.20;36.07
66396;BME280;53207;51.378;-1.342;2023-02-12T07:46:51;102331.36;;;19.51;35.99
66396;BME280;53207;51.378;-1.342;2023-02-12T07:49:20;102339.14;;;19.60;35.92
66396;BME280;53207;51.378;-1.342;2023-02-12T07:51:48;102343.06;;;19.27;36.08
66396;BME280;53207;51.378;-1.342;2023-02-12T07:54:16;102340.65;;;19.16;35.89
66396;BME280;53207;51.378;-1.342;2023-02-12T07:56:44;102343.35;;;19.59;36.00
66396;BME280;53207;51.378;-1.342;2023-02-12T07:59:13;102346.88;;;19.55;36.07
66396;BME280;53207;51.378;-1.342;2023-02-12T08:01:42;102346.63;;;19.05;36.10
66396;BME280;53207;51.378;-1.342;2023-02-12T08:04:13;102344.34;;;19.32;36.07
66396;BME280;53207;51.378;-1.342;2023-02-12T08:06:43;102350.53;;;19.28;36.16
66396;BME280;53207;51.378;-1.342;2023-02-12T08:09:12;102349.13;;;19.03;36.13
66396;BME280;53207;51.378;-1.342;2023-02-12T08:11:41;102346.35;;;19.41;35.99
66396;BME280;53207;51.378;-1.342;2023-02-12T08:14:10;102345.28;;;19.43;35.98
66396;BME280;53207;51.378;-1.342;2023-02-12T08:16:40;102353.22;;;19.39;36.00
66396;BME280;53207;51.378;-1.342;2023-02-12T08:19:07;102352.89;;;19.09;36.04
66396;BME280;53207;51.378;-1.342;2023-02-12T08:21:35;102351.11;;;19.13;35.93
66396;BME280;53207;51.378;-1.342;2023-02-12T08:24:02;102347.67;;;19.09;35.94
66396;BME280;53207;51.378;-1.342;2023-02-12T08:26:32;102349.13;;;19.12;35.84
66396;BME280;53207;51.378;-1.342;2023-02-12T08:29:02;102349.00;;;19.11;35.74
66396;BME280;53207;51.378;-1.342;2023-02-12T08:31:31;102356.94;;;19.11;35.74
66396;BME280;53207;51.378;-1.342;2023-02-12T08:34:00;102359.41;;;19.08;35.76
66396;BME280;53207;51.378;-1.342;2023-02-12T08:36:29;102356.28;;;19.00;35.75
66396;BME280;53207;51.378;-1.342;2023-02-12T08:38:57;102358.83;;;19.34;35.70
66396;BME280;53207;51.378;-1.342;2023-02-12T08:41:26;102360.80;;;19.29;35.74
66396;BME280;53207;51.378;-1.342;2023-02-12T08:43:56;102357.25;;;19.28;35.74
66396;BME280;53207;51.378;-1.342;2023-02-12T08:46:25;102353.96;;;19.00;35.83
66396;BME280;53207;51.378;-1.342;2023-02-12T08:48:54;102355.74;;;18.98;35.91
66396;BME280;53207;51.378;-1.342;2023-02-12T08:51:23;102355.54;;;19.27;35.91
66396;BME280;53207;51.378;-1.342;2023-02-12T08:53:52;102356.41;;;18.93;35.99
66396;BME280;53207;51.378;-1.342;2023-02-12T08:56:19;102356.53;;;18.95;35.98
66396;BME280;53207;51.378;-1.342;2023-02-12T08:58:47;102359.12;;;18.94;36.03
66396;BME280;53207;51.378;-1.342;2023-02-12T09:01:16;102363.60;;;18.93;36.05
66396;BME280;53207;51.378;-1.342;2023-02-12T09:03:45;102364.27;;;19.19;36.05
66396;BME280;53207;51.378;-1.342;2023-02-12T09:06:13;102361.16;;;19.44;36.04
66396;BME280;53207;51.378;-1.342;2023-02-12T09:08:41;102359.83;;;19.19;36.09
66396;BME280;53207;51.378;-1.342;2023-02-12T09:11:11;102366.32;;;18.91;36.13
66396;BME280;53207;51.378;-1.342;2023-02-12T09:13:39;102364.95;;;19.18;36.12
66396;BME280;53207;51.378;-1.342;2023-02-12T09:16:06;102365.78;;;18.94;36.13
66396;BME280;53207;51.378;-1.342;2023-02-12T09:18:34;102363.40;;;19.15;36.20
66396;BME280;53207;51.378;-1.342;2023-02-12T09:21:03;102362.12;;;19.41;36.19
66396;BME280;53207;51.378;-1.342;2023-02-12T09:23:31;102362.98;;;18.91;36.25
66396;BME280;53207;51.378;-1.342;2023-02-12T09:25:58;102365.88;;;19.33;36.71
66396;BME280;53207;51.378;-1.342;2023-02-12T09:28:26;102365.21;;;19.42;36.56
66396;BME280;53207;51.378;-1.342;2023-02-12T09:30:53;102368.05;;;19.44;36.50
66396;BME280;53207;51.378;-1.342;2023-02-12T09:33:20;102363.51;;;19.22;36.37
66396;BME280;53207;51.378;-1.342;2023-02-12T09:35:48;102362.33;;;19.54;36.25
66396;BME280;53207;51.378;-1.342;2023-02-12T09:38:15;102361.10;;;19.25;36.25
66396;BME280;53207;51.378;-1.342;2023-02-12T09:40:48;102361.94;;;19.29;36.16
66396;BME280;53207;51.378;-1.342;2023-02-12T09:43:28;102362.27;;;19.39;36.00
66396;BME280;53207;51.378;-1.342;2023-02-12T09:46:02;102367.46;;;19.50;35.83
66396;BME280;53207;51.378;-1.342;2023-02-12T09:48:41;102368.18;;;19.43;35.81
66396;BME280;53207;51.378;-1.342;2023-02-12T09:51:11;102364.67;;;19.80;35.65
66396;BME280;53207;51.378;-1.342;2023-02-12T09:53:42;102363.54;;;19.39;35.68
66396;BME280;53207;51.378;-1.342;2023-02-12T09:56:13;102362.21;;;19.21;35.55
66396;BME280;53207;51.378;-1.342;2023-02-12T09:58:44;102359.37;;;19.36;35.56
66396;BME280;53207;51.378;-1.342;2023-02-12T10:01:14;102358.89;;;19.53;35.35
66396;BME280;53207;51.378;-1.342;2023-02-12T10:03:42;102357.36;;;19.48;35.36
66396;BME280;53207;51.378;-1.342;2023-02-12T10:06:13;102361.28;;;19.47;35.29
66396;BME280;53207;51.378;-1.342;2023-02-12T10:08:57;102358.06;;;19.45;35.28
66396;BME280;53207;51.378;-1.342;2023-02-12T10:11:50;102358.12;;;19.40;35.21
66396;BME280;53207;51.378;-1.342;2023-02-12T10:14:48;102357.26;;;19.49;34.86
66396;BME280;53207;51.378;-1.342;2023-02-12T10:17:26;102352.23;;;19.46;34.95
66396;BME280;53207;51.378;-1.342;2023-02-12T10:20:14;102347.37;;;19.45;34.81
66396;BME280;53207;51.378;-1.342;2023-02-12T10:22:53;102349.84;;;19.52;34.69
66396;BME280;53207;51.378;-1.342;2023-02-12T10:25:29;102350.67;;;19.50;34.52
66396;BME280;53207;51.378;-1.342;2023-02-12T10:28:01;102350.43;;;19.46;34.68
66396;BME280;53207;51.378;-1.342;2023-02-12T10:30:41;102350.58;;;19.71;34.58
66396;BME280;53207;51.378;-1.342;2023-02-12T10:33:14;102348.30;;;19.42;34.47
66396;BME280;53207;51.378;-1.342;2023-02-12T10:35:45;102357.41;;;19.69;34.61
66396;BME280;53207;51.378;-1.342;2023-02-12T10:38:18;102357.44;;;19.38;34.56
66396;BME280;53207;51.378;-1.342;2023-02-12T10:40:46;102356.45;;;19.23;34.54
66396;BME280;53207;51.378;-1.342;2023-02-12T10:43:13;102360.05;;;19.46;34.57
66396;BME280;53207;51.378;-1.342;2023-02-12T10:45:42;102361.40;;;19.39;34.65
66396;BME280;53207;51.378;-1.342;2023-02-12T10:48:13;102366.53;;;19.01;34.61
66396;BME280;53207;51.378;-1.342;2023-02-12T10:50:51;102372.49;;;19.27;34.59
66396;BME280;53207;51.378;-1.342;2023-02-12T10:53:23;102375.95;;;19.14;34.70
66396;BME280;53207;51.378;-1.342;2023-02-12T10:56:09;102379.05;;;19.11;34.52
66396;BME280;53207;51.378;-1.342;2023-02-12T10:58:38;102378.89;;;19.21;34.42
66396;BME280;53207;51.378;-1.342;2023-02-12T11:01:14;102377.69;;;19.03;34.45
66396;BME280;53207;51.378;-1.342;2023-02-12T11:03:42;102372.90;;;18.76;34.59
66396;BME280;53207;51.378;-1.342;2023-02-12T11:06:13;102369.20;;;19.02;34.45
66396;BME280;53207;51.378;-1.342;2023-02-12T11:08:42;102368.10;;;18.88;34.48
66396;BME280;53207;51.378;-1.342;2023-02-12T11:11:18;102363.66;;;18.87;34.33
66396;BME280;53207;51.378;-1.342;2023-02-12T11:13:52;102366.82;;;19.03;34.37
66396;BME280;53207;51.378;-1.342;2023-02-12T11:16:27;102364.64;;;18.82;34.41
66396;BME280;53207;51.378;-1.342;2023-02-12T11:19:00;102362.12;;;18.78;34.03
66396;BME280;53207;51.378;-1.342;2023-02-12T11:21:27;102363.44;;;19.03;34.10
66396;BME280;53207;51.378;-1.342;2023-02-12T11:23:55;102363.33;;;19.03;33.90
66396;BME280;53207;51.378;-1.342;2023-02-12T11:26:26;102362.56;;;19.14;33.99
66396;BME280;53207;51.378;-1.342;2023-02-12T11:28:56;102361.28;;;18.79;34.32
66396;BME280;53207;51.378;-1.342;2023-02-12T11:31:25;102359.13;;;19.01;34.40
66396;BME280;53207;51.378;-1.342;2023-02-12T11:34:07;102356.24;;;18.69;34.24
66396;BME280;53207;51.378;-1.342;2023-02-12T11:36:37;102357.60;;;18.71;34.21
66396;BME280;53207;51.378;-1.342;2023-02-12T11:39:17;102353.73;;;18.96;34.25
66396;BME280;53207;51.378;-1.342;2023-02-12T11:41:50;102351.93;;;18.91;34.50
66396;BME280;53207;51.378;-1.342;2023-02-12T11:44:20;102346.66;;;18.80;34.58
66396;BME280;53207;51.378;-1.342;2023-02-12T11:46:51;102344.99;;;18.95;34.56
66396;BME280;53207;51.378;-1.342;2023-02-12T11:49:23;102340.68;;;18.86;34.86
66396;BME280;53207;51.378;-1.342;2023-02-12T11:51:53;102337.47;;;18.90;34.85
66396;BME280;53207;51.378;-1.342;2023-02-12T11:54:24;102341.23;;;18.91;35.14
66396;BME280;53207;51.378;-1.342;2023-02-12T11:56:52;102339.46;;;18.85;35.42
66396;BME280;53207;51.378;-1.342;2023-02-12T11:59:30;102334.49;;;18.82;35.82
66396;BME280;53207;51.378;-1.342;2023-02-12T12:02:00;102332.88;;;18.82;35.64
66396;BME280;53207;51.378;-1.342;2023-02-12T12:04:32;102331.31;;;18.67;35.79
66396;BME280;53207;51.378;-1.342;2023-02-12T12:07:04;102328.99;;;18.94;35.75
66396;BME280;53207;51.378;-1.342;2023-02-12T12:09:39;102324.50;;;18.81;35.70
66396;BME280;53207;51.378;-1.342;2023-02-12T12:12:11;102326.08;;;18.73;35.81
66396;BME280;53207;51.378;-1.342;2023-02-12T12:14:45;102325.68;;;18.76;35.65
66396;BME280;53207;51.378;-1.342;2023-02-12T12:17:16;102321.60;;;18.76;35.54
66396;BME280;53207;51.378;-1.342;2023-02-12T12:19:58;102314.05;;;18.90;35.78
66396;BME280;53207;51.378;-1.342;2023-02-12T12:22:39;102311.95;;;18.83;35.98
66396;BME280;53207;51.378;-1.342;2023-02-12T12:25:16;102307.63;;;18.89;35.98
66396;BME280;53207;51.378;-1.342;2023-02-12T12:27:56;102301.30;;;18.55;36.17
66396;BME280;53207;51.378;-1.342;2023-02-12T12:30:38;102301.62;;;18.73;36.23
66396;BME280;53207;51.378;-1.342;2023-02-12T12:33:13;102303.70;;;18.51;36.13
66396;BME280;53207;51.378;-1.342;2023-02-12T12:35:46;102302.06;;;18.71;36.47
66396;BME280;53207;51.378;-1.342;2023-02-12T12:38:22;102296.09;;;18.72;36.43
66396;BME280;53207;51.378;-1.342;2023-02-12T12:41:02;102295.43;;;18.77;36.38
66396;BME280;53207;51.378;-1.342;2023-02-12T12:43:41;102292.14;;;18.83;36.08
66396;BME280;53207;51.378;-1.342;2023-02-12T12:46:26;102286.64;;;18.51;36.04
66396;BME280;53207;51.378;-1.342;2023-02-12T12:49:08;102289.80;;;18.46;35.85
66396;BME280;53207;51.378;-1.342;2023-02-12T12:52:03;102286.81;;;18.70;35.82
66396;BME280;53207;51.378;-1.342;2023-02-12T12:54:48;102283.11;;;18.73;35.76
66396;BME280;53207;51.378;-1.342;2023-02-12T12:57:32;102282.07;;;18.76;35.33
66396;BME280;53207;51.378;-1.342;2023-02-12T13:00:11;102283.08;;;18.56;35.53